sensor_id;sensor_type;location;lat;lon;timestamp;temperature;humidity
57242;DHT22;43095;53.302;5.786;2022-09-14T00:00:19;16.20;99.90
57242;DHT22;43095;53.302;5.786;2022-09-14T00:03:05;16.20;99.90
57242;DHT22;43095;53.302;5.786;2022-09-14T00:05:50;16.20;99.90
57242;DHT22;43095;53.302;5.786;2022-09-14T00:08:37;16.30;99.90
57242;DHT22;43095;53.302;5.786;2022-09-14T00:11:25;16.30;99.90
57242;DHT22;43095;53.302;5.786;2022-09-14T00:14:11;16.30;99.90
57242;DHT22;43095;53.302;5.786;2022-09-14T00:16:57;16.30;99.90
57242;DHT22;43095;53.302;5.786;2022-09-14T00:19:43;16.30;99.90
57242;DHT22;43095;53.302;5.786;2022-09-14T00:22:28;16.30;99.90
57242;DHT22;43095;53.302;5.786;2022-09-14T00:25:15;16.30;99.90
57242;DHT22;43095;53.302;5.786;2022-09-14T00:28:01;16.30;99.90
57242;DHT22;43095;53.302;5.786;2022-09-14T00:30:47;16.30;99.90
57242;DHT22;43095;53.302;5.786;2022-09-14T00:33:32;16.30;99.90
57242;DHT22;43095;53.302;5.786;2022-09-14T00:36:24;16.20;99.90
57242;DHT22;43095;53.302;5.786;2022-09-14T00:39:11;16.20;99.90
57242;DHT22;43095;53.302;5.786;2022-09-14T00:41:59;16.20;99.90
57242;DHT22;43095;53.302;5.786;2022-09-14T00:47:30;16.20;99.90
57242;DHT22;43095;53.302;5.786;2022-09-14T00:50:17;16.20;99.90
57242;DHT22;43095;53.302;5.786;2022-09-14T00:53:04;16.20;99.90
57242;DHT22;43095;53.302;5.786;2022-09-14T00:55:50;16.20;99.90
57242;DHT22;43095;53.302;5.786;2022-09-14T00:58:38;16.20;99.90
57242;DHT22;43095;53.302;5.786;2022-09-14T01:01:25;16.20;99.90
57242;DHT22;43095;53.302;5.786;2022-09-14T01:04:11;16.20;99.90
57242;DHT22;43095;53.302;5.786;2022-09-14T01:10:27;16.20;99.90
57242;DHT22;43095;53.302;5.786;2022-09-14T01:19:25;16.20;99.90
57242;DHT22;43095;53.302;5.786;2022-09-14T01:22:20;16.30;99.90
57242;DHT22;43095;53.302;5.786;2022-09-14T01:31:46;16.30;99.90
57242;DHT22;43095;53.302;5.786;2022-09-14T01:34:48;16.30;99.90
57242;DHT22;43095;53.302;5.786;2022-09-14T01:37:40;16.30;99.90
57242;DHT22;43095;53.302;5.786;2022-09-14T01:40:40;16.20;99.90
57242;DHT22;43095;53.302;5.786;2022-09-14T01:46:54;16.20;99.90
57242;DHT22;43095;53.302;5.786;2022-09-14T01:49:45;16.20;99.90
57242;DHT22;43095;53.302;5.786;2022-09-14T01:52:43;16.20;99.90
57242;DHT22;43095;53.302;5.786;2022-09-14T01:55:38;16.20;99.90
57242;DHT22;43095;53.302;5.786;2022-09-14T01:58:29;16.20;99.90
57242;DHT22;43095;53.302;5.786;2022-09-14T02:01:24;16.20;99.90
57242;DHT22;43095;53.302;5.786;2022-09-14T02:04:19;16.10;99.90
57242;DHT22;43095;53.302;5.786;2022-09-14T02:07:06;16.10;99.90
57242;DHT22;43095;53.302;5.786;2022-09-14T02:09:52;16.00;99.90
57242;DHT22;43095;53.302;5.786;2022-09-14T02:12:39;16.00;99.90
57242;DHT22;43095;53.302;5.786;2022-09-14T02:15:25;16.00;99.90
57242;DHT22;43095;53.302;5.786;2022-09-14T02:18:11;16.00;99.90
57242;DHT22;43095;53.302;5.786;2022-09-14T02:21:00;16.00;99.90
57242;DHT22;43095;53.302;5.786;2022-09-14T02:23:47;15.90;99.90
57242;DHT22;43095;53.302;5.786;2022-09-14T02:26:34;15.90;99.90
57242;DHT22;43095;53.302;5.786;2022-09-14T02:29:20;15.90;99.90
57242;DHT22;43095;53.302;5.786;2022-09-14T02:32:20;15.90;99.90
57242;DHT22;43095;53.302;5.786;2022-09-14T02:38:09;15.80;99.90
57242;DHT22;43095;53.302;5.786;2022-09-14T02:47:13;15.80;99.90
57242;DHT22;43095;53.302;5.786;2022-09-14T02:50:23;15.80;99.90
57242;DHT22;43095;53.302;5.786;2022-09-14T02:56:17;15.90;99.90
57242;DHT22;43095;53.302;5.786;2022-09-14T02:59:04;15.90;99.90
57242;DHT22;43095;53.302;5.786;2022-09-14T03:01:49;15.90;99.90
57242;DHT22;43095;53.302;5.786;2022-09-14T03:04:35;15.90;99.90
57242;DHT22;43095;53.302;5.786;2022-09-14T03:07:21;15.90;99.90
57242;DHT22;43095;53.302;5.786;2022-09-14T03:10:07;15.90;99.90
57242;DHT22;43095;53.302;5.786;2022-09-14T03:12:53;15.90;99.90
57242;DHT22;43095;53.302;5.786;2022-09-14T03:15:39;15.90;99.90
57242;DHT22;43095;53.302;5.786;2022-09-14T03:18:24;15.90;99.90
57242;DHT22;43095;53.302;5.786;2022-09-14T03:21:12;16.00;99.90
57242;DHT22;43095;53.302;5.786;2022-09-14T03:23:58;16.00;99.90
57242;DHT22;43095;53.302;5.786;2022-09-14T03:26:44;15.90;99.90
57242;DHT22;43095;53.302;5.786;2022-09-14T03:29:30;15.90;99.90
57242;DHT22;43095;53.302;5.786;2022-09-14T03:32:16;16.00;99.90
57242;DHT22;43095;53.302;5.786;2022-09-14T03:35:01;16.00;99.90
57242;DHT22;43095;53.302;5.786;2022-09-14T03:37:47;16.00;99.90
57242;DHT22;43095;53.302;5.786;2022-09-14T03:40:32;16.00;99.90
57242;DHT22;43095;53.302;5.786;2022-09-14T03:43:18;16.00;99.90
57242;DHT22;43095;53.302;5.786;2022-09-14T03:46:09;16.00;99.90
57242;DHT22;43095;53.302;5.786;2022-09-14T03:48:56;16.00;99.90
57242;DHT22;43095;53.302;5.786;2022-09-14T03:51:41;16.00;99.90
57242;DHT22;43095;53.302;5.786;2022-09-14T03:54:27;16.00;99.90
57242;DHT22;43095;53.302;5.786;2022-09-14T03:57:12;16.00;99.90
57242;DHT22;43095;53.302;5.786;2022-09-14T04:00:00;16.00;99.90
57242;DHT22;43095;53.302;5.786;2022-09-14T04:02:45;16.00;99.90
57242;DHT22;43095;53.302;5.786;2022-09-14T04:05:31;16.00;99.90
57242;DHT22;43095;53.302;5.786;2022-09-14T04:08:16;16.00;99.90
57242;DHT22;43095;53.302;5.786;2022-09-14T04:11:11;16.00;99.90
57242;DHT22;43095;53.302;5.786;2022-09-14T04:14:02;16.00;99.90
57242;DHT22;43095;53.302;5.786;2022-09-14T04:16:47;16.00;99.90
57242;DHT22;43095;53.302;5.786;2022-09-14T04:19:33;16.00;99.90
57242;DHT22;43095;53.302;5.786;2022-09-14T04:22:21;16.00;99.90
57242;DHT22;43095;53.302;5.786;2022-09-14T04:25:07;15.90;99.90
57242;DHT22;43095;53.302;5.786;2022-09-14T04:27:52;15.90;99.90
57242;DHT22;43095;53.302;5.786;2022-09-14T04:31:00;15.90;99.90
57242;DHT22;43095;53.302;5.786;2022-09-14T04:33:46;15.90;99.90
57242;DHT22;43095;53.302;5.786;2022-09-14T04:36:34;15.90;99.90
57242;DHT22;43095;53.302;5.786;2022-09-14T04:39:20;15.90;99.90
57242;DHT22;43095;53.302;5.786;2022-09-14T04:42:06;15.90;99.90
57242;DHT22;43095;53.302;5.786;2022-09-14T04:44:52;15.90;99.90
57242;DHT22;43095;53.302;5.786;2022-09-14T04:47:38;15.90;99.90
57242;DHT22;43095;53.302;5.786;2022-09-14T04:50:23;15.90;99.90
57242;DHT22;43095;53.302;5.786;2022-09-14T04:53:10;15.80;99.90
57242;DHT22;43095;53.302;5.786;2022-09-14T04:56:04;15.80;99.90
57242;DHT22;43095;53.302;5.786;2022-09-14T04:58:52;15.80;99.90
57242;DHT22;43095;53.302;5.786;2022-09-14T05:01:43;15.80;99.90
57242;DHT22;43095;53.302;5.786;2022-09-14T05:04:29;15.80;99.90
57242;DHT22;43095;53.302;5.786;2022-09-14T05:07:14;15.70;99.90
57242;DHT22;43095;53.302;5.786;2022-09-14T05:10:00;15.70;99.90
57242;DHT22;43095;53.302;5.786;2022-09-14T05:12:46;15.80;99.90
57242;DHT22;43095;53.302;5.786;2022-09-14T05:15:32;15.70;99.90
57242;DHT22;43095;53.302;5.786;2022-09-14T05:18:18;15.70;99.90
57242;DHT22;43095;53.302;5.786;2022-09-14T05:21:05;15.70;99.90
57242;DHT22;43095;53.302;5.786;2022-09-14T05:23:54;15.70;99.90
57242;DHT22;43095;53.302;5.786;2022-09-14T05:26:42;15.70;99.90
57242;DHT22;43095;53.302;5.786;2022-09-14T05:29:28;15.60;99.90
57242;DHT22;43095;53.302;5.786;2022-09-14T05:32:14;15.60;99.90
57242;DHT22;43095;53.302;5.786;2022-09-14T05:35:00;15.60;99.90
57242;DHT22;43095;53.302;5.786;2022-09-14T05:37:45;15.60;99.90
57242;DHT22;43095;53.302;5.786;2022-09-14T05:40:31;15.60;99.90
57242;DHT22;43095;53.302;5.786;2022-09-14T05:43:17;15.60;99.90
57242;DHT22;43095;53.302;5.786;2022-09-14T05:46:04;15.60;99.90
57242;DHT22;43095;53.302;5.786;2022-09-14T05:48:50;15.60;99.90
57242;DHT22;43095;53.302;5.786;2022-09-14T05:51:36;15.50;99.90
57242;DHT22;43095;53.302;5.786;2022-09-14T05:54:22;15.50;99.90
57242;DHT22;43095;53.302;5.786;2022-09-14T05:57:09;15.50;99.90
57242;DHT22;43095;53.302;5.786;2022-09-14T05:59:55;15.60;99.90
57242;DHT22;43095;53.302;5.786;2022-09-14T06:02:45;15.60;99.90
57242;DHT22;43095;53.302;5.786;2022-09-14T06:05:31;15.60;99.90
57242;DHT22;43095;53.302;5.786;2022-09-14T06:08:17;15.50;99.90
57242;DHT22;43095;53.302;5.786;2022-09-14T06:11:04;15.60;99.90
57242;DHT22;43095;53.302;5.786;2022-09-14T06:13:50;15.60;99.90
57242;DHT22;43095;53.302;5.786;2022-09-14T06:16:36;15.60;99.90
57242;DHT22;43095;53.302;5.786;2022-09-14T06:19:22;15.60;99.90
57242;DHT22;43095;53.302;5.786;2022-09-14T06:22:07;15.60;99.90
57242;DHT22;43095;53.302;5.786;2022-09-14T06:24:53;15.60;99.90
57242;DHT22;43095;53.302;5.786;2022-09-14T06:27:38;15.70;99.90
57242;DHT22;43095;53.302;5.786;2022-09-14T06:30:24;15.70;99.90
57242;DHT22;43095;53.302;5.786;2022-09-14T06:33:10;15.70;99.90
57242;DHT22;43095;53.302;5.786;2022-09-14T06:36:02;15.70;99.90
57242;DHT22;43095;53.302;5.786;2022-09-14T06:38:48;15.80;99.90
57242;DHT22;43095;53.302;5.786;2022-09-14T06:41:34;15.80;99.90
57242;DHT22;43095;53.302;5.786;2022-09-14T06:44:20;15.80;99.90
57242;DHT22;43095;53.302;5.786;2022-09-14T06:47:05;15.80;99.90
57242;DHT22;43095;53.302;5.786;2022-09-14T06:49:51;15.80;99.90
57242;DHT22;43095;53.302;5.786;2022-09-14T06:52:37;15.90;99.90
57242;DHT22;43095;53.302;5.786;2022-09-14T06:55:23;15.90;99.90
57242;DHT22;43095;53.302;5.786;2022-09-14T06:58:08;16.00;99.90
57242;DHT22;43095;53.302;5.786;2022-09-14T07:00:53;16.00;99.90
57242;DHT22;43095;53.302;5.786;2022-09-14T07:03:39;16.00;99.90
57242;DHT22;43095;53.302;5.786;2022-09-14T07:06:28;16.10;99.90
57242;DHT22;43095;53.302;5.786;2022-09-14T07:09:16;16.10;99.90
57242;DHT22;43095;53.302;5.786;2022-09-14T07:12:01;16.20;99.90
57242;DHT22;43095;53.302;5.786;2022-09-14T07:14:47;16.20;99.90
57242;DHT22;43095;53.302;5.786;2022-09-14T07:17:33;16.30;99.90
57242;DHT22;43095;53.302;5.786;2022-09-14T07:20:20;16.40;99.90
57242;DHT22;43095;53.302;5.786;2022-09-14T07:23:06;16.40;99.90
57242;DHT22;43095;53.302;5.786;2022-09-14T07:26:21;16.50;99.90
57242;DHT22;43095;53.302;5.786;2022-09-14T07:29:07;16.60;99.90
57242;DHT22;43095;53.302;5.786;2022-09-14T07:31:53;16.60;99.90
57242;DHT22;43095;53.302;5.786;2022-09-14T07:34:38;16.70;99.90
57242;DHT22;43095;53.302;5.786;2022-09-14T07:37:24;16.80;99.90
57242;DHT22;43095;53.302;5.786;2022-09-14T07:40:10;16.80;99.90
57242;DHT22;43095;53.302;5.786;2022-09-14T07:42:56;17.00;99.90
57242;DHT22;43095;53.302;5.786;2022-09-14T07:45:42;17.10;99.90
57242;DHT22;43095;53.302;5.786;2022-09-14T07:48:27;17.20;99.90
57242;DHT22;43095;53.302;5.786;2022-09-14T07:51:13;17.20;99.90
57242;DHT22;43095;53.302;5.786;2022-09-14T07:53:59;17.30;99.90
57242;DHT22;43095;53.302;5.786;2022-09-14T07:56:46;17.40;99.90
57242;DHT22;43095;53.302;5.786;2022-09-14T07:59:35;17.40;99.90
57242;DHT22;43095;53.302;5.786;2022-09-14T08:02:21;17.40;99.90
57242;DHT22;43095;53.302;5.786;2022-09-14T08:05:08;17.50;99.90
57242;DHT22;43095;53.302;5.786;2022-09-14T08:07:54;17.60;99.90
57242;DHT22;43095;53.302;5.786;2022-09-14T08:10:40;17.70;99.90
57242;DHT22;43095;53.302;5.786;2022-09-14T08:13:28;17.70;99.90
57242;DHT22;43095;53.302;5.786;2022-09-14T08:16:14;17.80;99.90
57242;DHT22;43095;53.302;5.786;2022-09-14T08:19:02;17.90;99.90
57242;DHT22;43095;53.302;5.786;2022-09-14T08:21:48;17.90;99.90
57242;DHT22;43095;53.302;5.786;2022-09-14T08:24:36;18.00;99.90
57242;DHT22;43095;53.302;5.786;2022-09-14T08:27:21;18.10;99.90
57242;DHT22;43095;53.302;5.786;2022-09-14T08:30:07;18.20;99.90
57242;DHT22;43095;53.302;5.786;2022-09-14T08:32:54;18.20;99.90
57242;DHT22;43095;53.302;5.786;2022-09-14T08:35:45;18.30;99.90
57242;DHT22;43095;53.302;5.786;2022-09-14T08:38:42;18.30;99.90
57242;DHT22;43095;53.302;5.786;2022-09-14T08:44:46;18.50;99.90
57242;DHT22;43095;53.302;5.786;2022-09-14T08:47:34;18.50;99.90
57242;DHT22;43095;53.302;5.786;2022-09-14T08:50:24;18.50;99.90
57242;DHT22;43095;53.302;5.786;2022-09-14T08:53:11;18.60;99.90
57242;DHT22;43095;53.302;5.786;2022-09-14T08:56:01;18.50;99.90
57242;DHT22;43095;53.302;5.786;2022-09-14T09:11:12;18.90;99.90
57242;DHT22;43095;53.302;5.786;2022-09-14T09:13:59;19.00;99.90
57242;DHT22;43095;53.302;5.786;2022-09-14T09:16:49;18.90;99.90
57242;DHT22;43095;53.302;5.786;2022-09-14T09:25:48;18.90;99.90
57242;DHT22;43095;53.302;5.786;2022-09-14T09:28:42;18.90;99.90
57242;DHT22;43095;53.302;5.786;2022-09-14T09:31:43;18.90;99.90
57242;DHT22;43095;53.302;5.786;2022-09-14T09:34:51;18.80;99.90
57242;DHT22;43095;53.302;5.786;2022-09-14T09:37:47;18.70;99.90
57242;DHT22;43095;53.302;5.786;2022-09-14T09:40:38;18.70;99.90
57242;DHT22;43095;53.302;5.786;2022-09-14T09:43:26;18.70;99.90
57242;DHT22;43095;53.302;5.786;2022-09-14T09:46:34;18.70;99.90
57242;DHT22;43095;53.302;5.786;2022-09-14T09:49:29;18.80;99.90
57242;DHT22;43095;53.302;5.786;2022-09-14T09:52:16;18.90;99.90
57242;DHT22;43095;53.302;5.786;2022-09-14T09:55:03;19.00;99.90
57242;DHT22;43095;53.302;5.786;2022-09-14T09:57:51;19.00;99.90
57242;DHT22;43095;53.302;5.786;2022-09-14T10:00:38;19.10;99.90
57242;DHT22;43095;53.302;5.786;2022-09-14T10:03:31;19.20;99.90
57242;DHT22;43095;53.302;5.786;2022-09-14T10:06:16;19.30;99.90
57242;DHT22;43095;53.302;5.786;2022-09-14T10:09:15;19.30;99.90
57242;DHT22;43095;53.302;5.786;2022-09-14T10:12:03;19.20;99.90
57242;DHT22;43095;53.302;5.786;2022-09-14T10:14:49;19.20;99.90
57242;DHT22;43095;53.302;5.786;2022-09-14T10:23:43;19.20;99.90
57242;DHT22;43095;53.302;5.786;2022-09-14T10:26:32;19.20;99.90
57242;DHT22;43095;53.302;5.786;2022-09-14T10:29:25;19.10;99.90
57242;DHT22;43095;53.302;5.786;2022-09-14T10:32:19;19.20;99.80
57242;DHT22;43095;53.302;5.786;2022-09-14T10:35:14;19.10;98.40
57242;DHT22;43095;53.302;5.786;2022-09-14T10:38:15;19.20;99.90
57242;DHT22;43095;53.302;5.786;2022-09-14T10:49:59;20.30;99.10
57242;DHT22;43095;53.302;5.786;2022-09-14T10:52:54;20.50;97.10
57242;DHT22;43095;53.302;5.786;2022-09-14T10:56:08;20.50;95.60
57242;DHT22;43095;53.302;5.786;2022-09-14T11:02:25;21.00;92.00
57242;DHT22;43095;53.302;5.786;2022-09-14T11:05:24;21.20;90.30
57242;DHT22;43095;53.302;5.786;2022-09-14T11:09:05;21.40;91.80
57242;DHT22;43095;53.302;5.786;2022-09-14T11:12:24;21.50;90.10
57242;DHT22;43095;53.302;5.786;2022-09-14T11:15:20;21.90;90.40
57242;DHT22;43095;53.302;5.786;2022-09-14T11:18:17;21.90;81.80
57242;DHT22;43095;53.302;5.786;2022-09-14T11:21:36;22.00;81.80
57242;DHT22;43095;53.302;5.786;2022-09-14T11:24:33;21.90;77.60
57242;DHT22;43095;53.302;5.786;2022-09-14T11:27:33;21.90;73.20
57242;DHT22;43095;53.302;5.786;2022-09-14T11:30:23;22.00;78.00
57242;DHT22;43095;53.302;5.786;2022-09-14T11:33:22;21.90;74.80
57242;DHT22;43095;53.302;5.786;2022-09-14T11:36:20;21.90;73.60
57242;DHT22;43095;53.302;5.786;2022-09-14T11:39:17;22.20;75.40
57242;DHT22;43095;53.302;5.786;2022-09-14T11:42:14;21.80;69.50
57242;DHT22;43095;53.302;5.786;2022-09-14T11:45:23;21.70;72.10
57242;DHT22;43095;53.302;5.786;2022-09-14T11:49:18;21.80;73.10
57242;DHT22;43095;53.302;5.786;2022-09-14T11:52:01;21.70;69.10
57242;DHT22;43095;53.302;5.786;2022-09-14T11:54:49;21.50;65.30
57242;DHT22;43095;53.302;5.786;2022-09-14T11:57:35;21.70;71.40
57242;DHT22;43095;53.302;5.786;2022-09-14T12:03:21;21.50;70.00
57242;DHT22;43095;53.302;5.786;2022-09-14T12:12:27;21.50;68.10
57242;DHT22;43095;53.302;5.786;2022-09-14T12:15:34;21.40;63.40
57242;DHT22;43095;53.302;5.786;2022-09-14T12:18:23;21.50;66.90
57242;DHT22;43095;53.302;5.786;2022-09-14T12:21:24;21.80;70.10
57242;DHT22;43095;53.302;5.786;2022-09-14T12:24:13;22.20;71.90
57242;DHT22;43095;53.302;5.786;2022-09-14T12:27:17;22.30;70.40
57242;DHT22;43095;53.302;5.786;2022-09-14T12:39:28;22.50;71.00
57242;DHT22;43095;53.302;5.786;2022-09-14T12:42:29;22.30;70.30
57242;DHT22;43095;53.302;5.786;2022-09-14T12:45:48;22.30;72.60
57242;DHT22;43095;53.302;5.786;2022-09-14T12:51:46;22.30;72.80
57242;DHT22;43095;53.302;5.786;2022-09-14T12:54:48;22.60;70.70
57242;DHT22;43095;53.302;5.786;2022-09-14T12:57:56;22.40;70.50
57242;DHT22;43095;53.302;5.786;2022-09-14T13:03:52;21.60;69.60
57242;DHT22;43095;53.302;5.786;2022-09-14T13:06:41;21.40;73.40
57242;DHT22;43095;53.302;5.786;2022-09-14T13:09:29;21.60;75.50
57242;DHT22;43095;53.302;5.786;2022-09-14T13:12:40;21.90;78.50
57242;DHT22;43095;53.302;5.786;2022-09-14T13:15:31;22.40;77.60
57242;DHT22;43095;53.302;5.786;2022-09-14T13:21:18;23.10;72.20
57242;DHT22;43095;53.302;5.786;2022-09-14T13:24:34;23.20;69.80
57242;DHT22;43095;53.302;5.786;2022-09-14T13:27:30;23.40;64.10
57242;DHT22;43095;53.302;5.786;2022-09-14T13:30:22;23.00;67.30
57242;DHT22;43095;53.302;5.786;2022-09-14T13:33:15;22.90;69.30
57242;DHT22;43095;53.302;5.786;2022-09-14T13:36:02;23.20;69.90
57242;DHT22;43095;53.302;5.786;2022-09-14T13:38:49;23.00;69.80
57242;DHT22;43095;53.302;5.786;2022-09-14T13:41:41;22.90;70.30
57242;DHT22;43095;53.302;5.786;2022-09-14T13:44:33;22.80;71.60
57242;DHT22;43095;53.302;5.786;2022-09-14T13:47:21;22.60;69.90
57242;DHT22;43095;53.302;5.786;2022-09-14T13:50:11;22.60;71.30
57242;DHT22;43095;53.302;5.786;2022-09-14T13:52:57;22.60;73.20
57242;DHT22;43095;53.302;5.786;2022-09-14T13:55:47;22.80;71.80
57242;DHT22;43095;53.302;5.786;2022-09-14T13:58:33;23.00;69.80
57242;DHT22;43095;53.302;5.786;2022-09-14T14:01:27;23.50;69.90
57242;DHT22;43095;53.302;5.786;2022-09-14T14:04:34;23.20;67.80
57242;DHT22;43095;53.302;5.786;2022-09-14T14:07:23;23.30;68.80
57242;DHT22;43095;53.302;5.786;2022-09-14T14:10:44;23.20;67.40
57242;DHT22;43095;53.302;5.786;2022-09-14T14:13:33;23.40;66.60
57242;DHT22;43095;53.302;5.786;2022-09-14T14:16:21;23.50;66.60
57242;DHT22;43095;53.302;5.786;2022-09-14T14:19:33;23.70;65.60
57242;DHT22;43095;53.302;5.786;2022-09-14T14:25:19;23.30;67.00
57242;DHT22;43095;53.302;5.786;2022-09-14T14:28:16;23.60;67.70
57242;DHT22;43095;53.302;5.786;2022-09-14T14:31:03;23.60;67.50
57242;DHT22;43095;53.302;5.786;2022-09-14T14:33:53;23.60;65.00
57242;DHT22;43095;53.302;5.786;2022-09-14T14:36:39;23.70;63.40
57242;DHT22;43095;53.302;5.786;2022-09-14T14:39:25;23.70;64.70
57242;DHT22;43095;53.302;5.786;2022-09-14T14:42:13;23.80;64.30
57242;DHT22;43095;53.302;5.786;2022-09-14T14:44:59;23.60;62.70
57242;DHT22;43095;53.302;5.786;2022-09-14T14:47:48;23.80;63.60
57242;DHT22;43095;53.302;5.786;2022-09-14T14:50:37;24.30;63.70
57242;DHT22;43095;53.302;5.786;2022-09-14T14:53:25;24.20;63.10
57242;DHT22;43095;53.302;5.786;2022-09-14T14:56:12;23.80;62.90
57242;DHT22;43095;53.302;5.786;2022-09-14T14:58:57;23.70;62.80
57242;DHT22;43095;53.302;5.786;2022-09-14T15:01:47;23.70;62.60
57242;DHT22;43095;53.302;5.786;2022-09-14T15:04:33;23.70;63.10
57242;DHT22;43095;53.302;5.786;2022-09-14T15:07:19;23.90;64.70
57242;DHT22;43095;53.302;5.786;2022-09-14T15:10:06;23.60;64.40
57242;DHT22;43095;53.302;5.786;2022-09-14T15:12:52;23.10;65.00
57242;DHT22;43095;53.302;5.786;2022-09-14T15:15:39;23.30;66.00
57242;DHT22;43095;53.302;5.786;2022-09-14T15:18:27;23.10;65.30
57242;DHT22;43095;53.302;5.786;2022-09-14T15:21:12;22.70;66.70
57242;DHT22;43095;53.302;5.786;2022-09-14T15:23:58;22.40;68.40
57242;DHT22;43095;53.302;5.786;2022-09-14T15:26:44;22.30;69.70
57242;DHT22;43095;53.302;5.786;2022-09-14T15:29:32;21.90;69.80
57242;DHT22;43095;53.302;5.786;2022-09-14T15:32:17;21.70;73.40
57242;DHT22;43095;53.302;5.786;2022-09-14T15:35:05;21.60;75.20
57242;DHT22;43095;53.302;5.786;2022-09-14T15:37:51;21.30;76.00
57242;DHT22;43095;53.302;5.786;2022-09-14T15:40:38;21.00;78.10
57242;DHT22;43095;53.302;5.786;2022-09-14T15:43:24;21.00;81.10
57242;DHT22;43095;53.302;5.786;2022-09-14T15:46:10;20.90;82.60
57242;DHT22;43095;53.302;5.786;2022-09-14T15:48:56;20.70;81.40
57242;DHT22;43095;53.302;5.786;2022-09-14T15:51:42;20.60;82.60
57242;DHT22;43095;53.302;5.786;2022-09-14T15:54:34;20.50;85.00
57242;DHT22;43095;53.302;5.786;2022-09-14T15:57:21;20.40;85.80
57242;DHT22;43095;53.302;5.786;2022-09-14T16:00:09;20.40;86.70
57242;DHT22;43095;53.302;5.786;2022-09-14T16:03:00;20.50;88.30
57242;DHT22;43095;53.302;5.786;2022-09-14T16:05:46;20.60;86.30
57242;DHT22;43095;53.302;5.786;2022-09-14T16:08:34;20.80;84.90
57242;DHT22;43095;53.302;5.786;2022-09-14T16:11:20;20.50;85.60
57242;DHT22;43095;53.302;5.786;2022-09-14T16:14:07;20.50;85.70
57242;DHT22;43095;53.302;5.786;2022-09-14T16:16:53;20.30;86.50
57242;DHT22;43095;53.302;5.786;2022-09-14T16:19:39;20.00;90.10
57242;DHT22;43095;53.302;5.786;2022-09-14T16:22:24;19.80;90.90
57242;DHT22;43095;53.302;5.786;2022-09-14T16:25:10;19.60;91.70
57242;DHT22;43095;53.302;5.786;2022-09-14T16:27:56;19.50;93.40
57242;DHT22;43095;53.302;5.786;2022-09-14T16:30:42;19.50;94.50
57242;DHT22;43095;53.302;5.786;2022-09-14T16:33:27;19.70;93.70
57242;DHT22;43095;53.302;5.786;2022-09-14T16:36:15;19.60;92.90
57242;DHT22;43095;53.302;5.786;2022-09-14T16:39:06;19.70;92.30
57242;DHT22;43095;53.302;5.786;2022-09-14T16:41:53;19.50;92.70
57242;DHT22;43095;53.302;5.786;2022-09-14T16:44:40;19.50;93.10
57242;DHT22;43095;53.302;5.786;2022-09-14T16:47:26;19.20;93.60
57242;DHT22;43095;53.302;5.786;2022-09-14T16:50:12;19.10;94.20
57242;DHT22;43095;53.302;5.786;2022-09-14T16:52:57;19.20;94.30
57242;DHT22;43095;53.302;5.786;2022-09-14T16:55:43;19.10;94.60
57242;DHT22;43095;53.302;5.786;2022-09-14T16:58:28;18.90;94.60
57242;DHT22;43095;53.302;5.786;2022-09-14T17:01:20;18.80;95.70
57242;DHT22;43095;53.302;5.786;2022-09-14T17:04:08;18.80;95.30
57242;DHT22;43095;53.302;5.786;2022-09-14T17:06:54;18.70;95.70
57242;DHT22;43095;53.302;5.786;2022-09-14T17:09:40;18.60;96.70
57242;DHT22;43095;53.302;5.786;2022-09-14T17:12:26;18.50;97.30
57242;DHT22;43095;53.302;5.786;2022-09-14T17:15:12;18.40;98.10
57242;DHT22;43095;53.302;5.786;2022-09-14T17:17:58;18.40;99.30
57242;DHT22;43095;53.302;5.786;2022-09-14T17:21:02;18.40;99.20
57242;DHT22;43095;53.302;5.786;2022-09-14T17:23:48;18.30;99.80
57242;DHT22;43095;53.302;5.786;2022-09-14T17:26:34;18.20;99.90
57242;DHT22;43095;53.302;5.786;2022-09-14T17:29:20;18.20;99.90
57242;DHT22;43095;53.302;5.786;2022-09-14T17:32:05;18.10;99.90
57242;DHT22;43095;53.302;5.786;2022-09-14T17:34:56;18.00;99.90
57242;DHT22;43095;53.302;5.786;2022-09-14T17:37:42;18.00;99.90
57242;DHT22;43095;53.302;5.786;2022-09-14T17:40:29;17.90;99.90
57242;DHT22;43095;53.302;5.786;2022-09-14T17:43:15;17.80;99.90
57242;DHT22;43095;53.302;5.786;2022-09-14T17:46:03;17.70;99.90
57242;DHT22;43095;53.302;5.786;2022-09-14T17:48:50;17.70;99.90
57242;DHT22;43095;53.302;5.786;2022-09-14T17:51:36;17.60;99.90
57242;DHT22;43095;53.302;5.786;2022-09-14T17:54:24;17.50;99.90
57242;DHT22;43095;53.302;5.786;2022-09-14T17:57:09;17.40;99.90
57242;DHT22;43095;53.302;5.786;2022-09-14T17:59:55;17.40;99.90
57242;DHT22;43095;53.302;5.786;2022-09-14T18:02:41;17.30;99.90
57242;DHT22;43095;53.302;5.786;2022-09-14T18:05:26;17.20;99.90
57242;DHT22;43095;53.302;5.786;2022-09-14T18:08:12;17.20;99.90
57242;DHT22;43095;53.302;5.786;2022-09-14T18:11:24;17.10;99.90
57242;DHT22;43095;53.302;5.786;2022-09-14T18:14:12;17.00;99.90
57242;DHT22;43095;53.302;5.786;2022-09-14T18:16:58;16.90;99.90
57242;DHT22;43095;53.302;5.786;2022-09-14T18:19:44;16.80;99.90
57242;DHT22;43095;53.302;5.786;2022-09-14T18:22:29;16.80;99.90
57242;DHT22;43095;53.302;5.786;2022-09-14T18:25:15;16.70;99.90
57242;DHT22;43095;53.302;5.786;2022-09-14T18:28:01;16.60;99.90
57242;DHT22;43095;53.302;5.786;2022-09-14T18:30:47;16.60;99.90
57242;DHT22;43095;53.302;5.786;2022-09-14T18:33:33;16.60;99.90
57242;DHT22;43095;53.302;5.786;2022-09-14T18:36:20;16.50;99.90
57242;DHT22;43095;53.302;5.786;2022-09-14T18:39:06;16.50;99.90
57242;DHT22;43095;53.302;5.786;2022-09-14T18:41:52;16.40;99.90
57242;DHT22;43095;53.302;5.786;2022-09-14T18:44:38;16.40;99.90
57242;DHT22;43095;53.302;5.786;2022-09-14T18:47:24;16.30;99.90
57242;DHT22;43095;53.302;5.786;2022-09-14T18:50:11;16.30;99.90
57242;DHT22;43095;53.302;5.786;2022-09-14T18:52:58;16.30;99.90
57242;DHT22;43095;53.302;5.786;2022-09-14T18:55:44;16.30;99.90
57242;DHT22;43095;53.302;5.786;2022-09-14T18:58:34;16.40;99.90
57242;DHT22;43095;53.302;5.786;2022-09-14T19:01:20;16.30;99.90
57242;DHT22;43095;53.302;5.786;2022-09-14T19:04:07;16.30;99.90
57242;DHT22;43095;53.302;5.786;2022-09-14T19:06:53;16.30;99.90
57242;DHT22;43095;53.302;5.786;2022-09-14T19:09:39;16.30;99.90
57242;DHT22;43095;53.302;5.786;2022-09-14T19:12:26;16.40;99.90
57242;DHT22;43095;53.302;5.786;2022-09-14T19:15:12;16.40;99.90
57242;DHT22;43095;53.302;5.786;2022-09-14T19:17:57;16.40;99.90
57242;DHT22;43095;53.302;5.786;2022-09-14T19:20:43;16.40;99.90
57242;DHT22;43095;53.302;5.786;2022-09-14T19:23:59;16.40;99.90
57242;DHT22;43095;53.302;5.786;2022-09-14T19:26:48;16.40;99.90
57242;DHT22;43095;53.302;5.786;2022-09-14T19:29:34;16.40;99.90
57242;DHT22;43095;53.302;5.786;2022-09-14T19:32:20;16.30;99.90
57242;DHT22;43095;53.302;5.786;2022-09-14T19:35:07;16.30;99.90